Port Moody, Canada
Current Conditions -  °F | °C
As of 11:00 AM on Monday 20 Oct 2014 (Local Time) from CYVR Reporting Station
Broken Clouds Broken Clouds  
Wind Chill: 63°   Ceiling: 8800
Heat Index: 63°   Visibility: 12mi
Dew Point: 57°   Wind: 8mph
Humidity: 82%   Direction: 110°ESE
Pressure: 29.71"   Gusts: NA
Location:  49.28°N, 122.83°W
Report Text: CYVR 201800Z 11007KT 12SM SCT007 SCT038 BKN088 BKN120 17/14 A2971 RMK SC3SC1AC1AC1 VIS W 20 CU ASOCTD SLP060 DENSITY ALT 400FT
Loading
Personal Weather Stations






























Interactive Weather Map
Tropical Storm Tracking
New forecast layout! Learn more

10-Day Weather Forecast

Advertisements
Track Severe Weather on mobile